Accueil
METAR-TAF:

METAR-TAF

Aéroports :

Aéroport international de Punta Cana

Punta Cana, République dominicaine

latitude: 18-34N, longitude: 068-22W, altitude: 12 m

Observation

Le bulletin a été fait il y a 39 minutes, à 03:00 UTC
Vent 8 kt de sud-est
Température 29°C
Humidité 79%
Pression 1014 hPa
Visibilité 10 km ou plus
Quelques nuages à une hauteur de 1800 ft

METAR: MDPC 210300Z 14008KT 9999 FEW018 29/25 Q1014

Heure: 23:39 (03:39 UTC)

Prévision

Le bulletin a été fait il y a 5 heures et 39 minutes, à 22:00 UTC
Prévision valable du 21 à 00 UTC au 22 à 00 UTC
Vent 10 kt de sud/sud-est
Visibilité 10 km ou plus
Quelques nuages à une hauteur de 1800 ft
Nuages épars à une hauteur de 30000 ft

TAF: MDPC 202200Z 2100/2200 15010KT 9999 FEW018 SCT300

Observations et prévisions météorologiques de plus de 4000 aéroports (messages METAR et TAF).

Les stations disponibles sont représentées par des disques jaunes et rouges sur la carte.

Passer la souris dessus pour voir le nom de la station.

Cliquer dessus pour voir les observations et prévisions météorologiques.

Pour changer de carte: cliquez sur les boutons verts avec une croix noire pour zoomer, sur le bouton vert avec un tiret pour effectuer un zoom arrière, ou sur les flèches vertes pour les cartes adjacentes.


METAR-TAF: